createdAt,value
2022-09-10T00:02:19.492Z,1.55
2022-09-10T00:05:21.464Z,1.40
2022-09-10T00:08:23.793Z,1.60
2022-09-10T00:11:32.567Z,1.88
2022-09-10T00:14:35.743Z,1.55
2022-09-10T00:17:38.929Z,1.92
2022-09-10T00:20:54.027Z,1.92
2022-09-10T00:23:56.462Z,1.70
2022-09-10T00:26:59.790Z,1.67
2022-09-10T00:30:02.657Z,1.60
2022-09-10T00:33:04.341Z,2.28
2022-09-10T00:36:15.019Z,1.75
2022-09-10T00:39:20.508Z,1.88
2022-09-10T00:42:22.957Z,1.77
2022-09-10T00:45:27.578Z,1.60
2022-09-10T00:48:32.454Z,1.67
2022-09-10T00:51:36.779Z,1.70
2022-09-10T00:54:41.305Z,1.50
2022-09-10T00:57:46.063Z,1.60
2022-09-10T01:00:48.642Z,2.17
2022-09-10T01:03:56.006Z,1.73
2022-09-10T01:06:58.634Z,1.85
2022-09-10T01:10:05.021Z,1.70
2022-09-10T01:13:22.190Z,1.70
2022-09-10T01:16:52.905Z,1.75
2022-09-10T01:20:17.595Z,2.25
2022-09-10T01:23:41.342Z,2.35
2022-09-10T01:27:24.291Z,2.05
2022-09-10T01:30:42.278Z,2.17
2022-09-10T01:33:55.072Z,2.50
2022-09-10T01:37:04.323Z,2.70
2022-09-10T01:40:07.441Z,2.22
2022-09-10T01:43:11.763Z,1.92
2022-09-10T01:46:39.714Z,2.25
2022-09-10T01:50:10.222Z,2.38
2022-09-10T01:53:23.898Z,2.10
2022-09-10T01:59:30.171Z,2.55
2022-09-10T02:02:43.249Z,2.60
2022-09-10T02:05:48.685Z,2.15
2022-09-10T02:08:53.519Z,2.33
2022-09-10T02:11:58.287Z,2.30
2022-09-10T02:15:00.075Z,2.50
2022-09-10T02:18:01.824Z,2.30
2022-09-10T02:21:04.360Z,2.00
2022-09-10T02:24:09.999Z,2.57
2022-09-10T02:27:13.091Z,2.03
2022-09-10T02:30:16.121Z,2.10
2022-09-10T02:33:18.628Z,2.05
2022-09-10T02:36:20.713Z,2.53
2022-09-10T02:39:31.749Z,2.58
2022-09-10T02:42:34.304Z,2.13
2022-09-10T02:45:37.632Z,2.10
2022-09-10T02:48:40.180Z,2.33
2022-09-10T02:51:42.411Z,2.10
2022-09-10T02:54:44.167Z,2.10
2022-09-10T02:57:45.962Z,2.30
2022-09-10T03:00:47.962Z,2.15
2022-09-10T03:03:55.262Z,2.67
2022-09-10T03:06:56.952Z,2.60
2022-09-10T03:09:59.217Z,2.55
2022-09-10T03:13:01.394Z,2.83
2022-09-10T03:16:04.213Z,2.00
2022-09-10T03:19:06.061Z,2.78
2022-09-10T03:22:07.925Z,2.47
2022-09-10T03:25:10.083Z,2.72
2022-09-10T03:28:12.366Z,2.53
2022-09-10T03:31:15.137Z,2.58
2022-09-10T03:34:17.917Z,2.67
2022-09-10T03:37:21.164Z,3.13
2022-09-10T03:40:23.234Z,2.60
2022-09-10T03:43:28.416Z,2.28
2022-09-10T03:46:30.085Z,2.90
2022-09-10T03:49:32.692Z,2.97
2022-09-10T03:52:34.517Z,3.10
2022-09-10T03:55:36.307Z,3.35
2022-09-10T03:58:38.694Z,2.90
2022-09-10T04:01:41.325Z,3.00
2022-09-10T04:04:42.995Z,3.47
2022-09-10T04:07:45.460Z,3.13
2022-09-10T04:10:48.254Z,3.17
2022-09-10T04:13:50.214Z,2.90
2022-09-10T04:16:52.418Z,3.25
2022-09-10T04:19:54.147Z,3.97
2022-09-10T04:22:56.803Z,3.40
2022-09-10T04:25:58.734Z,3.47
2022-09-10T04:29:00.391Z,3.20
2022-09-10T04:32:03.481Z,3.20
2022-09-10T04:35:06.516Z,3.45
2022-09-10T04:38:08.522Z,3.00
2022-09-10T04:41:10.969Z,3.15
2022-09-10T04:44:13.590Z,3.00
2022-09-10T04:47:16.455Z,3.10
2022-09-10T04:50:18.126Z,2.80
2022-09-10T04:53:24.075Z,2.47
2022-09-10T04:56:26.468Z,3.30
2022-09-10T04:59:29.722Z,3.42
2022-09-10T05:02:31.911Z,3.15
2022-09-10T05:05:34.689Z,3.47
2022-09-10T05:08:36.897Z,3.25
2022-09-10T05:11:38.622Z,3.25
2022-09-10T05:14:40.333Z,3.03
2022-09-10T05:17:42.008Z,3.13
2022-09-10T05:20:45.064Z,4.03
2022-09-10T05:23:47.915Z,4.40
2022-09-10T05:26:50.508Z,5.40
2022-09-10T05:29:52.181Z,6.93
2022-09-10T05:32:53.919Z,6.00
2022-09-10T05:35:55.577Z,8.13
2022-09-10T05:39:00.047Z,11.13
2022-09-10T05:42:02.194Z,8.27
2022-09-10T05:45:04.137Z,6.18
2022-09-10T05:48:07.053Z,5.40
2022-09-10T05:51:09.298Z,5.57
2022-09-10T05:54:11.529Z,5.65
2022-09-10T05:57:13.216Z,5.32
2022-09-10T06:00:17.629Z,6.45
2022-09-10T06:03:19.916Z,7.78
2022-09-10T06:06:21.883Z,7.93
2022-09-10T06:09:24.485Z,7.00
2022-09-10T06:12:49.693Z,7.03
2022-09-10T06:15:51.929Z,6.53
2022-09-10T06:18:54.197Z,6.18
2022-09-10T06:21:56.322Z,6.55
2022-09-10T06:24:58.653Z,5.90
2022-09-10T06:28:01.741Z,5.45
2022-09-10T06:31:07.141Z,5.22
2022-09-10T06:34:09.169Z,5.43
2022-09-10T06:37:10.994Z,5.45
2022-09-10T06:40:13.414Z,5.50
2022-09-10T06:43:15.173Z,5.20
2022-09-10T06:46:56.823Z,5.78
2022-09-10T06:49:41.658Z,5.13
2022-09-10T06:52:43.801Z,4.72
2022-09-10T06:55:45.747Z,5.85
2022-09-10T06:58:47.633Z,6.03
2022-09-10T07:01:49.858Z,6.55
2022-09-10T07:04:51.862Z,6.25
2022-09-10T07:07:54.899Z,6.80
2022-09-10T07:11:03.298Z,6.93
2022-09-10T07:14:04.966Z,10.23
2022-09-10T07:17:06.660Z,16.40
2022-09-10T07:20:09.266Z,13.48
2022-09-10T07:23:16.337Z,12.43
2022-09-10T07:26:22.241Z,8.43
2022-09-10T07:29:24.661Z,7.72
2022-09-10T07:32:26.413Z,8.18
2022-09-10T07:35:28.639Z,10.77
2022-09-10T07:38:30.467Z,10.88
2022-09-10T07:41:34.422Z,9.55
2022-09-10T07:44:36.111Z,9.95
2022-09-10T07:47:38.422Z,9.07
2022-09-10T07:50:40.100Z,8.45
2022-09-10T07:53:50.000Z,9.70
2022-09-10T07:56:52.477Z,9.85
2022-09-10T07:59:54.618Z,9.60
2022-09-10T08:02:56.311Z,8.80
2022-09-10T08:06:02.240Z,9.07
2022-09-10T08:09:07.405Z,9.45
2022-09-10T08:12:09.861Z,9.98
2022-09-10T08:15:11.992Z,9.13
2022-09-10T08:18:14.089Z,9.50
2022-09-10T08:21:19.029Z,10.45
2022-09-10T08:24:20.758Z,9.80
2022-09-10T08:27:22.523Z,9.40
2022-09-10T08:30:24.213Z,9.93
2022-09-10T08:33:26.306Z,10.40
2022-09-10T08:36:27.955Z,10.75
2022-09-10T08:39:32.855Z,10.48
2022-09-10T08:42:42.994Z,10.00
2022-09-10T08:45:50.798Z,10.35
2022-09-10T08:49:05.318Z,11.02
2022-09-10T08:52:35.487Z,11.30
2022-09-10T08:55:42.745Z,13.57
2022-09-10T08:59:01.430Z,13.30
2022-09-10T09:02:47.801Z,14.80
2022-09-10T09:06:00.482Z,12.38
2022-09-10T09:09:04.184Z,11.07
2022-09-10T09:12:39.162Z,10.55
2022-09-10T09:16:07.125Z,10.90
2022-09-10T09:19:17.460Z,10.15
2022-09-10T09:22:28.853Z,9.93
2022-09-10T09:25:37.743Z,10.27
2022-09-10T09:28:48.180Z,11.20
2022-09-10T09:31:54.400Z,10.43
2022-09-10T09:35:23.859Z,10.75
2022-09-10T09:38:31.997Z,10.63
2022-09-10T09:42:12.789Z,10.57
2022-09-10T09:45:35.382Z,11.00
2022-09-10T09:48:42.113Z,11.75
2022-09-10T09:51:46.852Z,11.70
2022-09-10T09:55:14.233Z,10.98
2022-09-10T09:58:28.807Z,10.43
2022-09-10T10:01:33.416Z,10.52
2022-09-10T10:04:40.225Z,11.15
2022-09-10T10:07:48.012Z,10.70
2022-09-10T10:10:52.672Z,11.52
2022-09-10T10:14:23.117Z,10.95
2022-09-10T10:17:24.778Z,11.18
2022-09-10T10:20:38.995Z,10.98
2022-09-10T10:23:41.842Z,10.88
2022-09-10T10:26:45.745Z,11.82
2022-09-10T10:30:22.379Z,12.40
2022-09-10T10:33:29.400Z,11.85
2022-09-10T10:36:47.560Z,12.65
2022-09-10T10:39:55.466Z,12.60
2022-09-10T10:43:18.972Z,13.27
2022-09-10T10:46:22.707Z,13.20
2022-09-10T10:49:32.203Z,12.90
2022-09-10T10:52:47.364Z,11.82
2022-09-10T10:56:06.296Z,11.82
2022-09-10T10:59:19.468Z,11.70
2022-09-10T11:02:54.654Z,11.65
2022-09-10T11:06:08.170Z,10.90
2022-09-10T11:09:17.065Z,10.52
2022-09-10T11:12:28.049Z,11.40
2022-09-10T11:15:46.467Z,10.95
2022-09-10T11:19:01.624Z,11.82
2022-09-10T11:22:14.520Z,10.95
2022-09-10T11:25:26.321Z,11.02
2022-09-10T11:28:39.806Z,11.10
2022-09-10T11:31:53.218Z,11.32
2022-09-10T11:35:22.876Z,10.90
2022-09-10T11:38:46.787Z,10.80
2022-09-10T11:45:02.964Z,10.90
2022-09-10T11:48:24.833Z,11.48
2022-09-10T11:51:37.029Z,12.30
2022-09-10T11:54:39.785Z,11.15
2022-09-10T11:58:05.302Z,11.27
2022-09-10T12:01:16.252Z,10.75
2022-09-10T12:04:22.985Z,11.57
2022-09-10T12:07:31.102Z,11.98
2022-09-10T12:10:49.759Z,11.93
2022-09-10T12:13:52.608Z,11.60
2022-09-10T12:16:59.356Z,10.82
2022-09-10T12:20:04.568Z,11.38
2022-09-10T12:23:07.175Z,11.63
2022-09-10T12:26:10.287Z,10.90
2022-09-10T12:29:42.681Z,10.65
2022-09-10T12:32:44.564Z,11.23
2022-09-10T12:35:52.271Z,11.02
2022-09-10T12:39:20.089Z,10.68
2022-09-10T12:42:32.208Z,10.32
2022-09-10T12:46:02.552Z,10.18
2022-09-10T12:49:09.599Z,9.85
2022-09-10T12:52:13.834Z,9.57
2022-09-10T12:55:40.994Z,8.60
2022-09-10T12:58:54.310Z,8.73
2022-09-10T13:01:57.113Z,8.75
2022-09-10T13:05:26.905Z,9.70
2022-09-10T13:08:41.523Z,7.30
2022-09-10T13:11:49.553Z,7.40
2022-09-10T13:14:55.097Z,6.55
2022-09-10T13:18:00.110Z,6.10
2022-09-10T13:21:23.803Z,5.15
2022-09-10T13:24:35.999Z,4.40
2022-09-10T13:27:40.895Z,4.53
2022-09-10T13:30:43.665Z,4.88
2022-09-10T13:33:52.098Z,5.00
2022-09-10T13:37:18.946Z,4.97
2022-09-10T13:40:34.693Z,4.88
2022-09-10T13:43:48.731Z,4.45
2022-09-10T13:46:55.231Z,4.82
2022-09-10T13:50:12.090Z,4.32
2022-09-10T13:53:15.984Z,5.22
2022-09-10T13:56:27.258Z,5.43
2022-09-10T13:59:31.757Z,4.93
2022-09-10T14:02:48.339Z,4.85
2022-09-10T14:06:01.611Z,4.25
2022-09-10T14:09:06.585Z,4.10
2022-09-10T14:12:10.328Z,4.72
2022-09-10T14:15:18.844Z,3.42
2022-09-10T14:18:22.115Z,3.80
2022-09-10T14:21:29.347Z,3.97
2022-09-10T14:24:39.873Z,4.18
2022-09-10T14:27:41.593Z,3.97
2022-09-10T14:30:45.389Z,3.70
2022-09-10T14:33:47.109Z,3.33
2022-09-10T14:36:48.943Z,3.05
2022-09-10T14:39:51.722Z,3.00
2022-09-10T14:43:33.690Z,2.88
2022-09-10T14:46:54.164Z,2.58
2022-09-10T14:50:34.119Z,2.30
2022-09-10T14:53:36.308Z,2.10
2022-09-10T14:56:39.710Z,2.10
2022-09-10T15:02:44.713Z,2.08
2022-09-10T15:05:46.958Z,1.77
2022-09-10T15:08:51.433Z,2.25
2022-09-10T15:12:22.518Z,2.10
2022-09-10T15:15:25.120Z,2.00
2022-09-10T15:18:26.879Z,2.47
2022-09-10T15:21:31.586Z,2.55
2022-09-10T15:24:52.548Z,2.50
2022-09-10T15:27:56.180Z,2.60
2022-09-10T15:30:58.342Z,2.22
2022-09-10T15:34:00.956Z,2.13
2022-09-10T15:37:06.141Z,2.93
2022-09-10T15:40:10.371Z,2.03
2022-09-10T15:43:13.617Z,2.40
2022-09-10T15:46:18.645Z,2.13
2022-09-10T15:49:20.566Z,2.35
2022-09-10T15:52:22.586Z,2.10
2022-09-10T15:55:25.052Z,2.22
2022-09-10T15:58:26.771Z,2.38
2022-09-10T16:01:29.171Z,1.90
2022-09-10T16:04:35.809Z,2.17
2022-09-10T16:07:39.089Z,2.15
2022-09-10T16:10:41.030Z,1.90
2022-09-10T16:13:43.474Z,2.33
2022-09-10T16:16:45.781Z,2.35
2022-09-10T16:19:47.708Z,2.30
2022-09-10T16:22:50.762Z,2.67
2022-09-10T16:25:54.873Z,2.78
2022-09-10T16:28:59.902Z,4.55
2022-09-10T16:32:01.958Z,3.38
2022-09-10T16:35:05.410Z,3.53
2022-09-10T16:41:14.764Z,3.35
2022-09-10T16:44:25.477Z,3.83
2022-09-10T16:47:27.145Z,4.38
2022-09-10T16:50:31.071Z,5.28
2022-09-10T16:53:34.211Z,4.78
2022-09-10T16:56:42.220Z,5.13
2022-09-10T16:59:52.996Z,4.88
2022-09-10T17:02:54.966Z,5.80
2022-09-10T17:06:00.715Z,5.40
2022-09-10T17:09:02.584Z,5.32
2022-09-10T17:12:04.728Z,4.07
2022-09-10T17:15:27.042Z,2.60
2022-09-10T17:18:29.229Z,2.22
2022-09-10T17:21:34.597Z,2.00
2022-09-10T17:24:36.991Z,2.05
2022-09-10T17:27:38.696Z,2.60
2022-09-10T17:30:43.275Z,2.45
2022-09-10T17:33:52.390Z,3.40
2022-09-10T17:36:54.922Z,2.50
2022-09-10T17:39:57.032Z,2.23
2022-09-10T17:42:59.193Z,2.10
2022-09-10T17:46:09.659Z,2.13
2022-09-10T17:49:15.654Z,2.33
2022-09-10T17:52:17.496Z,2.60
2022-09-10T17:55:19.331Z,2.10
2022-09-10T17:58:22.302Z,2.85
2022-09-10T18:01:38.798Z,2.83
2022-09-10T18:04:41.029Z,2.92
2022-09-10T18:07:46.038Z,3.08
2022-09-10T18:10:48.656Z,3.15
2022-09-10T18:13:52.866Z,3.30
2022-09-10T18:16:55.889Z,3.10
2022-09-10T18:19:58.385Z,4.03
2022-09-10T18:23:03.456Z,3.90
2022-09-10T18:26:17.147Z,3.50
2022-09-10T18:29:27.752Z,4.43
2022-09-10T18:32:29.706Z,3.88
2022-09-10T18:35:31.527Z,4.47
2022-09-10T18:38:33.470Z,4.13
2022-09-10T18:41:36.498Z,4.13
2022-09-10T18:44:38.276Z,4.22
2022-09-10T18:47:45.107Z,4.90
2022-09-10T18:50:47.333Z,4.75
2022-09-10T18:53:53.739Z,4.50
2022-09-10T18:56:57.252Z,4.72
2022-09-10T19:00:00.408Z,5.97
2022-09-10T19:03:02.936Z,7.15
2022-09-10T19:06:13.368Z,5.85
2022-09-10T19:09:27.210Z,5.72
2022-09-10T19:12:28.921Z,5.85
2022-09-10T19:15:31.002Z,5.72
2022-09-10T19:18:32.806Z,5.13
2022-09-10T19:21:38.378Z,5.47
2022-09-10T19:24:56.394Z,4.97
2022-09-10T19:27:58.233Z,4.75
2022-09-10T19:31:05.078Z,5.63
2022-09-10T19:34:08.601Z,5.60
2022-09-10T19:40:12.675Z,7.15
2022-09-10T19:43:14.974Z,6.28
2022-09-10T19:46:19.023Z,6.57
2022-09-10T19:49:21.610Z,6.60
2022-09-10T19:52:24.515Z,7.03
2022-09-10T19:55:26.914Z,7.40
2022-09-10T19:58:28.618Z,7.40
2022-09-10T20:01:40.609Z,6.90
2022-09-10T20:04:45.688Z,8.23
2022-09-10T20:07:48.018Z,8.13
2022-09-10T20:10:59.249Z,7.78
2022-09-10T20:14:21.435Z,8.30
2022-09-10T20:17:23.433Z,9.57
2022-09-10T20:20:25.089Z,9.23
2022-09-10T20:23:26.755Z,9.25
2022-09-10T20:26:33.766Z,9.88
2022-09-10T20:29:35.766Z,9.25
2022-09-10T20:32:37.924Z,9.52
2022-09-10T20:35:42.782Z,9.63
2022-09-10T20:38:44.903Z,8.90
2022-09-10T20:41:59.941Z,9.80
2022-09-10T20:45:02.572Z,10.27
2022-09-10T20:48:04.347Z,10.00
2022-09-10T20:51:07.431Z,9.60
2022-09-10T20:54:14.878Z,9.80
2022-09-10T20:57:17.592Z,9.68
2022-09-10T21:00:19.384Z,10.40
2022-09-10T21:03:23.401Z,10.05
2022-09-10T21:06:28.113Z,9.52
2022-09-10T21:09:29.841Z,10.65
2022-09-10T21:12:31.535Z,9.93
2022-09-10T21:15:33.888Z,9.98
2022-09-10T21:18:42.849Z,10.75
2022-09-10T21:21:46.304Z,10.38
2022-09-10T21:27:50.351Z,10.23
2022-09-10T21:30:52.081Z,10.70
2022-09-10T21:33:59.408Z,10.88
2022-09-10T21:37:03.884Z,9.98
2022-09-10T21:40:06.885Z,10.50
2022-09-10T21:43:09.814Z,10.82
2022-09-10T21:46:13.288Z,10.82
2022-09-10T21:52:24.092Z,10.93
2022-09-10T21:55:37.924Z,10.65
2022-09-10T21:58:39.856Z,11.18
2022-09-10T22:01:46.614Z,10.90
2022-09-10T22:04:48.667Z,11.50
2022-09-10T22:07:51.228Z,12.07
2022-09-10T22:10:52.890Z,11.50
2022-09-10T22:14:02.216Z,11.70
2022-09-10T22:17:09.689Z,11.52
2022-09-10T22:20:11.545Z,11.60
2022-09-10T22:23:14.423Z,11.90
2022-09-10T22:26:18.342Z,11.50
2022-09-10T22:29:32.897Z,12.13
2022-09-10T22:32:34.658Z,11.52
2022-09-10T22:35:38.984Z,12.77
2022-09-10T22:38:42.743Z,11.57
2022-09-10T22:41:45.164Z,11.80
2022-09-10T22:44:46.997Z,12.80
2022-09-10T22:47:57.063Z,12.65
2022-09-10T22:51:03.749Z,13.15
2022-09-10T22:54:06.780Z,12.25
2022-09-10T22:57:18.127Z,13.05
2022-09-10T23:00:25.697Z,13.15
2022-09-10T23:03:40.716Z,12.65
2022-09-10T23:06:42.487Z,13.48
2022-09-10T23:13:01.063Z,13.38
2022-09-10T23:16:10.881Z,13.73
2022-09-10T23:19:22.223Z,14.23
2022-09-10T23:22:26.969Z,14.80
2022-09-10T23:25:28.872Z,13.90
2022-09-10T23:28:33.289Z,13.68
2022-09-10T23:31:37.605Z,14.40
2022-09-10T23:34:42.132Z,14.30
2022-09-10T23:37:44.947Z,14.48
2022-09-10T23:40:47.173Z,15.07
2022-09-10T23:43:49.328Z,14.55
2022-09-10T23:47:00.534Z,15.45
2022-09-10T23:50:09.724Z,14.70
2022-09-10T23:56:28.556Z,16.88
2022-09-10T23:59:30.594Z,16.25
